createdAt,value
2019-05-29T00:03:58.380Z,15.12
2019-05-29T00:08:04.163Z,15.22
2019-05-29T00:12:13.837Z,15.26
2019-05-29T00:16:17.259Z,15.41
2019-05-29T00:20:23.036Z,15.49
2019-05-29T00:24:28.900Z,15.46
2019-05-29T00:28:34.667Z,15.58
2019-05-29T00:32:40.628Z,15.79
2019-05-29T00:36:46.295Z,15.96
2019-05-29T00:40:52.188Z,16.01
2019-05-29T00:44:57.865Z,16.08
2019-05-29T00:49:03.610Z,15.99
2019-05-29T00:53:10.142Z,16.03
2019-05-29T00:57:16.970Z,16.02
2019-05-29T01:01:23.612Z,15.98
2019-05-29T01:05:29.317Z,15.87
2019-05-29T01:09:35.061Z,16.01
2019-05-29T01:13:40.754Z,16.01
2019-05-29T01:17:46.503Z,15.98
2019-05-29T01:21:52.430Z,15.94
2019-05-29T01:25:58.117Z,15.79
2019-05-29T01:30:05.456Z,15.66
2019-05-29T01:34:11.271Z,15.69
2019-05-29T01:38:19.217Z,15.68
2019-05-29T01:42:25.102Z,15.69
2019-05-29T01:46:30.891Z,15.65
2019-05-29T01:50:36.605Z,15.55
2019-05-29T01:54:42.312Z,15.47
2019-05-29T01:58:47.989Z,15.27
2019-05-29T02:02:53.834Z,14.84
2019-05-29T02:06:59.505Z,14.76
2019-05-29T02:11:05.431Z,14.64
2019-05-29T02:15:23.751Z,14.78
2019-05-29T02:19:19.947Z,14.90
2019-05-29T02:23:25.814Z,15.03
2019-05-29T02:27:31.703Z,15.14
2019-05-29T02:31:37.375Z,15.16
2019-05-29T02:35:43.096Z,15.19
2019-05-29T02:39:48.803Z,15.09
2019-05-29T02:43:54.498Z,14.85
2019-05-29T02:48:00.247Z,15.01
2019-05-29T02:52:06.030Z,14.88
2019-05-29T02:56:11.688Z,14.71
2019-05-29T03:00:17.818Z,14.95
2019-05-29T03:04:24.116Z,14.76
2019-05-29T03:08:34.132Z,14.86
2019-05-29T03:12:40.889Z,14.88
2019-05-29T03:16:46.598Z,15.04
2019-05-29T03:20:52.291Z,15.07
2019-05-29T03:24:58.008Z,15.12
2019-05-29T03:29:03.759Z,15.15
2019-05-29T03:33:09.462Z,15.18
2019-05-29T03:37:15.133Z,15.00
2019-05-29T03:41:20.912Z,14.81
2019-05-29T03:45:26.799Z,14.88
2019-05-29T03:49:35.193Z,14.89
2019-05-29T03:53:40.987Z,14.88
2019-05-29T03:57:46.780Z,14.90
2019-05-29T04:01:52.464Z,14.89
2019-05-29T04:05:58.319Z,14.99
2019-05-29T04:10:05.107Z,15.07
2019-05-29T04:14:10.786Z,15.07
2019-05-29T04:18:20.260Z,15.02
2019-05-29T04:22:32.873Z,15.01
2019-05-29T04:26:40.932Z,14.99
2019-05-29T04:30:47.648Z,14.97
2019-05-29T04:34:53.402Z,15.01
2019-05-29T04:38:59.186Z,14.95
2019-05-29T04:43:04.972Z,15.05
2019-05-29T04:47:12.217Z,15.13
2019-05-29T04:51:18.087Z,15.02
2019-05-29T04:55:23.783Z,15.15
2019-05-29T04:59:29.489Z,15.24
2019-05-29T05:03:35.340Z,15.35
2019-05-29T05:07:41.090Z,15.53
2019-05-29T05:11:46.938Z,15.62
2019-05-29T05:15:55.866Z,15.48
2019-05-29T05:20:01.636Z,15.49
2019-05-29T05:24:07.794Z,15.33
2019-05-29T05:28:13.486Z,15.56
2019-05-29T05:32:19.335Z,15.71
2019-05-29T05:36:25.241Z,15.65
2019-05-29T05:40:30.929Z,15.51
2019-05-29T05:44:37.096Z,15.57
2019-05-29T05:48:42.836Z,15.61
2019-05-29T05:52:48.542Z,15.47
2019-05-29T05:56:54.263Z,15.45
2019-05-29T06:00:59.969Z,15.60
2019-05-29T06:05:07.435Z,15.54
2019-05-29T06:09:13.137Z,15.54
2019-05-29T06:13:18.857Z,15.65
2019-05-29T06:17:24.548Z,15.71
2019-05-29T06:21:30.229Z,15.64
2019-05-29T06:25:38.305Z,15.70
2019-05-29T06:29:43.609Z,15.68
2019-05-29T06:33:49.485Z,15.66
2019-05-29T06:42:02.857Z,15.79
2019-05-29T06:46:08.548Z,15.84
2019-05-29T06:50:14.459Z,15.78
2019-05-29T06:54:20.166Z,15.77
2019-05-29T06:58:25.916Z,15.75
2019-05-29T07:02:31.934Z,15.74
2019-05-29T07:06:38.540Z,15.76
2019-05-29T07:10:44.618Z,15.80
2019-05-29T07:14:50.417Z,15.83
2019-05-29T07:19:23.886Z,15.91
2019-05-29T07:23:03.514Z,16.00
2019-05-29T07:27:13.350Z,15.97
2019-05-29T07:31:16.721Z,15.83
2019-05-29T07:35:22.554Z,15.65
2019-05-29T07:39:28.287Z,15.73
2019-05-29T07:43:33.975Z,15.88
2019-05-29T07:47:40.447Z,15.90
2019-05-29T07:51:46.767Z,15.93
2019-05-29T07:55:53.841Z,15.92
2019-05-29T07:59:59.524Z,16.00
2019-05-29T08:04:05.297Z,16.07
2019-05-29T08:08:10.971Z,16.08
2019-05-29T08:12:16.669Z,16.27
2019-05-29T08:16:22.494Z,16.39
2019-05-29T08:20:29.245Z,16.57
2019-05-29T08:24:35.033Z,16.74
2019-05-29T08:28:40.854Z,16.99
2019-05-29T08:32:46.993Z,17.11
2019-05-29T08:37:06.025Z,17.23
2019-05-29T08:41:00.172Z,16.99
2019-05-29T08:45:09.021Z,17.13
2019-05-29T08:49:14.686Z,17.44
2019-05-29T08:53:21.359Z,17.56
2019-05-29T08:57:27.017Z,17.51
2019-05-29T09:01:32.727Z,17.83
2019-05-29T09:05:39.500Z,18.23
2019-05-29T09:09:45.261Z,18.49
2019-05-29T09:13:50.955Z,18.92
2019-05-29T09:17:56.720Z,18.97
2019-05-29T09:22:02.459Z,18.75
2019-05-29T09:26:16.065Z,18.85
2019-05-29T09:30:17.135Z,18.79
2019-05-29T09:34:24.453Z,18.37
2019-05-29T09:38:30.130Z,18.19
2019-05-29T09:42:35.820Z,18.21
2019-05-29T09:46:41.521Z,18.03
2019-05-29T09:50:50.405Z,17.79
2019-05-29T09:54:56.155Z,17.80
2019-05-29T09:59:03.699Z,18.04
2019-05-29T10:03:09.303Z,18.08
2019-05-29T10:07:14.997Z,18.01
2019-05-29T10:11:20.776Z,18.07
2019-05-29T10:15:26.697Z,18.36
2019-05-29T10:19:32.389Z,18.65
2019-05-29T10:23:38.944Z,19.31
2019-05-29T10:27:44.707Z,21.03
2019-05-29T10:31:51.408Z,22.30
2019-05-29T10:35:57.803Z,22.27
2019-05-29T10:40:05.522Z,21.66
2019-05-29T10:44:13.035Z,20.81
2019-05-29T10:48:18.848Z,19.83
2019-05-29T10:52:24.574Z,19.34
2019-05-29T10:56:30.318Z,19.01
2019-05-29T11:00:39.095Z,18.88
2019-05-29T11:04:47.577Z,19.22
2019-05-29T11:08:52.027Z,19.65
2019-05-29T11:12:57.986Z,19.77
2019-05-29T11:17:03.656Z,19.81
2019-05-29T11:21:09.615Z,19.88
2019-05-29T11:25:22.544Z,20.18
2019-05-29T11:29:23.225Z,20.30
2019-05-29T11:33:28.927Z,20.50
2019-05-29T11:37:34.633Z,20.77
2019-05-29T11:41:40.361Z,20.74
2019-05-29T11:45:46.091Z,21.16
2019-05-29T11:49:53.146Z,21.67
2019-05-29T11:53:59.597Z,21.74
2019-05-29T11:58:06.240Z,21.27
2019-05-29T12:02:12.010Z,21.99
2019-05-29T12:06:17.722Z,21.17
2019-05-29T12:10:23.618Z,20.79
2019-05-29T12:14:29.439Z,20.79
2019-05-29T12:18:35.150Z,20.73
2019-05-29T12:22:41.020Z,20.41
2019-05-29T12:26:47.994Z,20.54
2019-05-29T12:30:55.040Z,21.37
2019-05-29T12:35:01.190Z,21.83
2019-05-29T12:39:08.931Z,21.35
2019-05-29T12:43:26.442Z,21.79
2019-05-29T12:47:22.279Z,21.47
2019-05-29T12:51:28.090Z,21.45
2019-05-29T12:55:33.831Z,20.77
2019-05-29T12:59:41.176Z,20.21
2019-05-29T13:03:46.954Z,19.34
2019-05-29T13:07:52.629Z,19.11
2019-05-29T13:12:00.413Z,18.90
2019-05-29T13:16:06.493Z,18.83
2019-05-29T13:20:20.990Z,18.80
2019-05-29T13:24:20.584Z,18.86
2019-05-29T13:28:26.293Z,18.92
2019-05-29T13:32:32.066Z,18.86
2019-05-29T13:36:38.169Z,18.76
2019-05-29T13:40:43.870Z,18.78
2019-05-29T13:44:49.703Z,19.61
2019-05-29T13:48:56.715Z,20.26
2019-05-29T13:53:03.556Z,20.66
2019-05-29T13:57:09.421Z,20.38
2019-05-29T14:01:15.308Z,20.17
2019-05-29T14:05:21.490Z,20.01
2019-05-29T14:09:27.240Z,20.45
2019-05-29T14:13:33.089Z,21.49
2019-05-29T14:17:38.795Z,22.37
2019-05-29T14:21:44.494Z,22.02
2019-05-29T14:25:50.250Z,21.03
2019-05-29T14:29:56.054Z,20.28
2019-05-29T14:34:02.939Z,19.98
2019-05-29T14:38:11.592Z,19.61
2019-05-29T14:42:16.304Z,19.38
2019-05-29T14:46:21.993Z,19.33
2019-05-29T14:50:27.666Z,19.28
2019-05-29T14:54:41.986Z,19.05
2019-05-29T14:58:40.854Z,18.83
2019-05-29T15:02:46.685Z,18.91
2019-05-29T15:06:52.792Z,18.91
2019-05-29T15:10:58.633Z,19.10
2019-05-29T15:15:06.725Z,19.06
2019-05-29T15:19:13.249Z,19.10
2019-05-29T15:23:19.047Z,19.18
2019-05-29T15:27:24.857Z,19.10
2019-05-29T15:31:30.599Z,19.14
2019-05-29T15:35:36.513Z,19.18
2019-05-29T15:39:42.287Z,19.34
2019-05-29T15:43:49.376Z,19.35
2019-05-29T15:47:57.776Z,19.21
2019-05-29T15:52:03.863Z,19.28
2019-05-29T15:56:23.741Z,19.30
2019-05-29T16:00:18.776Z,19.40
2019-05-29T16:04:24.509Z,19.41
2019-05-29T16:08:30.207Z,19.22
2019-05-29T16:12:36.450Z,19.16
2019-05-29T16:16:42.150Z,19.13
2019-05-29T16:20:47.842Z,19.06
2019-05-29T16:24:53.582Z,19.13
2019-05-29T16:28:59.337Z,19.17
2019-05-29T16:33:05.176Z,19.16
2019-05-29T16:37:11.206Z,19.14
2019-05-29T16:41:18.061Z,18.87
2019-05-29T16:45:23.906Z,18.71
2019-05-29T16:49:29.580Z,18.74
2019-05-29T16:53:35.283Z,18.67
2019-05-29T16:57:40.972Z,18.68
2019-05-29T17:01:46.660Z,18.45
2019-05-29T17:05:52.350Z,18.46
2019-05-29T17:09:58.240Z,18.36
2019-05-29T17:14:03.982Z,18.32
2019-05-29T17:18:09.832Z,18.20
2019-05-29T17:22:16.570Z,18.18
2019-05-29T17:26:22.749Z,18.10
2019-05-29T17:30:32.095Z,18.04
2019-05-29T17:34:37.804Z,18.05
2019-05-29T17:38:43.511Z,18.02
2019-05-29T17:42:50.255Z,17.94
2019-05-29T17:46:56.114Z,17.88
2019-05-29T17:51:01.942Z,17.93
2019-05-29T17:55:08.293Z,17.73
2019-05-29T17:59:14.315Z,17.46
2019-05-29T18:03:20.158Z,17.60
2019-05-29T18:07:26.696Z,17.61
2019-05-29T18:11:32.416Z,17.61
2019-05-29T18:15:38.216Z,17.55
2019-05-29T18:19:43.995Z,17.49
2019-05-29T18:23:53.259Z,17.39
2019-05-29T18:27:57.097Z,17.28
2019-05-29T18:32:02.801Z,17.18
2019-05-29T18:36:08.500Z,17.21
2019-05-29T18:40:15.336Z,17.05
2019-05-29T18:44:21.051Z,16.87
2019-05-29T18:48:27.281Z,16.81
2019-05-29T18:52:33.098Z,16.85
2019-05-29T18:56:38.838Z,16.75
2019-05-29T19:00:44.602Z,16.73
2019-05-29T19:04:51.901Z,16.58
2019-05-29T19:08:57.620Z,16.58
2019-05-29T19:13:03.419Z,16.53
2019-05-29T19:17:09.441Z,16.51
2019-05-29T19:21:15.282Z,16.34
2019-05-29T19:25:22.545Z,16.20
2019-05-29T19:29:29.216Z,16.07
2019-05-29T19:33:34.991Z,15.91
2019-05-29T19:37:40.714Z,15.75
2019-05-29T19:41:46.492Z,15.57
2019-05-29T19:45:52.242Z,15.32
2019-05-29T19:49:57.950Z,15.25
2019-05-29T19:54:03.779Z,15.21
2019-05-29T19:58:09.451Z,14.93
2019-05-29T20:02:15.292Z,14.79
2019-05-29T20:06:21.015Z,14.77
2019-05-29T20:10:27.158Z,14.72
2019-05-29T20:14:33.784Z,14.73
2019-05-29T20:18:39.567Z,14.80
2019-05-29T20:22:45.339Z,14.93
2019-05-29T20:26:51.015Z,14.83
2019-05-29T20:30:57.275Z,14.81
2019-05-29T20:35:03.332Z,14.74
2019-05-29T20:39:09.541Z,14.71
2019-05-29T20:43:15.230Z,14.71
2019-05-29T20:47:20.993Z,14.64
2019-05-29T20:51:27.839Z,14.63
2019-05-29T20:55:33.539Z,14.64
2019-05-29T20:59:40.130Z,14.66
2019-05-29T21:03:46.889Z,14.76
2019-05-29T21:07:52.600Z,14.64
2019-05-29T21:11:58.311Z,14.47
2019-05-29T21:16:04.124Z,14.48
2019-05-29T21:20:11.488Z,14.41
2019-05-29T21:24:17.178Z,14.48
2019-05-29T21:28:22.872Z,14.54
2019-05-29T21:32:28.611Z,14.50
2019-05-29T21:36:34.275Z,14.51
2019-05-29T21:40:40.370Z,14.59
2019-05-29T21:44:47.073Z,14.51
2019-05-29T21:48:52.831Z,14.41
2019-05-29T21:52:58.516Z,14.29
2019-05-29T21:57:04.354Z,14.24
2019-05-29T22:01:10.374Z,14.38
2019-05-29T22:05:16.696Z,14.45
2019-05-29T22:09:22.357Z,14.38
2019-05-29T22:13:28.331Z,14.44
2019-05-29T22:17:34.148Z,14.42
2019-05-29T22:21:39.851Z,14.30
2019-05-29T22:25:45.593Z,14.11
2019-05-29T22:29:51.943Z,14.06
2019-05-29T22:33:59.646Z,14.14
2019-05-29T22:38:05.299Z,14.22
2019-05-29T22:42:10.965Z,14.19
2019-05-29T22:46:16.652Z,14.28
2019-05-29T22:50:22.332Z,14.25
2019-05-29T22:54:28.093Z,13.90
2019-05-29T22:58:33.757Z,13.69
2019-05-29T23:02:39.555Z,13.72
2019-05-29T23:06:45.297Z,13.88
2019-05-29T23:10:52.169Z,13.98
2019-05-29T23:14:58.495Z,13.98
2019-05-29T23:19:04.555Z,13.69
2019-05-29T23:23:10.363Z,13.55
2019-05-29T23:27:16.054Z,13.65
2019-05-29T23:31:21.739Z,13.58
2019-05-29T23:35:27.425Z,13.81
2019-05-29T23:39:33.627Z,13.94
2019-05-29T23:43:39.324Z,13.84
2019-05-29T23:47:45.042Z,13.67
2019-05-29T23:51:50.730Z,13.66
2019-05-29T23:55:57.594Z,13.57
